createdAt,value
2022-12-27T00:04:16.800Z,101736.56
2022-12-27T00:09:18.449Z,101736.22
2022-12-27T00:14:19.999Z,101737.03
2022-12-27T00:19:21.702Z,101744.59
2022-12-27T00:24:23.367Z,101749.31
2022-12-27T00:29:24.892Z,101733.28
2022-12-27T00:34:26.633Z,101744.88
2022-12-27T00:39:28.338Z,101740.22
2022-12-27T00:44:29.946Z,101739.09
2022-12-27T00:49:31.604Z,101748.47
2022-12-27T00:54:33.263Z,101751.19
2022-12-27T00:59:34.958Z,101748.72
2022-12-27T01:04:36.628Z,101753.31
2022-12-27T01:09:38.282Z,101754.06
2022-12-27T01:14:39.926Z,101757.09
2022-12-27T01:19:41.557Z,101755.00
2022-12-27T01:24:43.228Z,101749.44
2022-12-27T01:29:45.001Z,101753.59
2022-12-27T01:34:46.807Z,101750.25
2022-12-27T01:39:48.481Z,101759.31
2022-12-27T01:44:55.138Z,101753.16
2022-12-27T01:50:03.701Z,101764.16
2022-12-27T01:55:23.080Z,101772.34
2022-12-27T02:00:24.800Z,101762.66
2022-12-27T02:05:27.024Z,101777.44
2022-12-27T02:10:29.263Z,101784.69
2022-12-27T02:15:31.140Z,101779.44
2022-12-27T02:20:48.679Z,101782.56
2022-12-27T02:26:19.050Z,101778.03
2022-12-27T02:31:35.179Z,101773.81
2022-12-27T02:36:40.056Z,101783.34
2022-12-27T02:41:43.061Z,101791.47
2022-12-27T02:46:47.105Z,101797.25
2022-12-27T02:52:09.450Z,101793.75
2022-12-27T02:57:49.527Z,101791.03
2022-12-27T03:03:07.924Z,101787.03
2022-12-27T03:08:24.398Z,101799.44
2022-12-27T03:13:41.191Z,101795.28
2022-12-27T03:19:01.699Z,101805.13
2022-12-27T03:24:05.313Z,101802.41
2022-12-27T03:29:08.986Z,101816.31
2022-12-27T03:34:18.417Z,101811.72
2022-12-27T03:39:30.813Z,101813.25
2022-12-27T03:44:32.914Z,101824.94
2022-12-27T03:49:41.405Z,101815.97
2022-12-27T03:54:45.636Z,101825.41
2022-12-27T03:59:47.675Z,101819.97
2022-12-27T04:04:50.180Z,101829.31
2022-12-27T04:09:51.745Z,101839.47
2022-12-27T04:14:53.484Z,101836.50
2022-12-27T04:19:55.073Z,101836.00
2022-12-27T04:24:56.826Z,101828.59
2022-12-27T04:29:58.854Z,101834.13
2022-12-27T04:35:00.800Z,101829.34
2022-12-27T04:40:02.376Z,101829.94
2022-12-27T04:45:04.480Z,101829.91
2022-12-27T04:50:24.081Z,101824.72
2022-12-27T04:55:27.900Z,101826.00
2022-12-27T05:00:31.157Z,101834.03
2022-12-27T05:05:35.178Z,101839.38
2022-12-27T05:10:36.970Z,101846.56
2022-12-27T05:15:38.613Z,101840.97
2022-12-27T05:20:40.456Z,101834.38
2022-12-27T05:25:44.319Z,101846.75
2022-12-27T05:30:47.776Z,101851.06
2022-12-27T05:35:49.488Z,101863.09
2022-12-27T05:40:51.184Z,101861.81
2022-12-27T05:45:53.340Z,101857.59
2022-12-27T05:50:54.899Z,101868.44
2022-12-27T05:55:59.520Z,101876.56
2022-12-27T06:01:01.889Z,101882.97
2022-12-27T06:06:06.263Z,101884.06
2022-12-27T06:11:12.514Z,101881.31
2022-12-27T06:16:14.733Z,101886.88
2022-12-27T06:21:19.416Z,101889.59
2022-12-27T06:26:24.651Z,101895.25
2022-12-27T06:31:27.502Z,101904.25
2022-12-27T06:36:29.616Z,101897.25
2022-12-27T06:41:31.194Z,101913.50
2022-12-27T06:46:32.769Z,101910.31
2022-12-27T06:51:34.561Z,101911.78
2022-12-27T06:56:36.436Z,101916.00
2022-12-27T07:01:38.246Z,101931.59
2022-12-27T07:06:40.683Z,101935.28
2022-12-27T07:11:42.336Z,101948.66
2022-12-27T07:16:44.019Z,101950.22
2022-12-27T07:21:45.611Z,101942.16
2022-12-27T07:26:47.265Z,101951.81
2022-12-27T07:31:48.901Z,101954.75
2022-12-27T07:36:50.861Z,101958.72
2022-12-27T07:41:52.589Z,101966.75
2022-12-27T07:46:54.109Z,101972.47
2022-12-27T07:51:55.849Z,101976.00
2022-12-27T07:56:57.486Z,101978.72
2022-12-27T08:02:00.415Z,101989.28
2022-12-27T08:07:08.921Z,101996.22
2022-12-27T08:12:11.244Z,101999.78
2022-12-27T08:17:22.129Z,101998.50
2022-12-27T08:22:24.035Z,101992.34
2022-12-27T08:27:25.665Z,101988.69
2022-12-27T08:32:27.251Z,101994.75
2022-12-27T08:37:29.043Z,101995.81
2022-12-27T08:42:30.762Z,101995.38
2022-12-27T08:47:32.367Z,102000.53
2022-12-27T08:52:34.403Z,102005.03
2022-12-27T08:57:36.030Z,102001.63
2022-12-27T09:02:37.651Z,102006.13
2022-12-27T09:07:39.259Z,102013.53
2022-12-27T09:12:41.061Z,102020.09
2022-12-27T09:17:42.665Z,102022.22
2022-12-27T09:22:44.229Z,102021.38
2022-12-27T09:27:45.763Z,102033.47
2022-12-27T09:32:47.377Z,102028.91
2022-12-27T09:37:48.924Z,102026.44
2022-12-27T09:43:18.128Z,102031.03
2022-12-27T09:48:33.230Z,102033.28
2022-12-27T09:53:38.147Z,102030.34
2022-12-27T09:58:52.944Z,102024.88
2022-12-27T10:03:54.579Z,102024.84
2022-12-27T10:09:16.305Z,102029.13
2022-12-27T10:14:53.306Z,102017.34
2022-12-27T10:20:24.110Z,102018.88
2022-12-27T10:25:26.248Z,102010.81
2022-12-27T10:30:30.736Z,102008.75
2022-12-27T10:35:32.277Z,102018.41
2022-12-27T10:40:57.487Z,102022.72
2022-12-27T10:46:12.643Z,102024.56
2022-12-27T10:51:14.470Z,102018.19
2022-12-27T10:56:27.517Z,102007.28
2022-12-27T11:01:30.471Z,102004.69
2022-12-27T11:06:32.135Z,102007.38
2022-12-27T11:11:33.682Z,102006.75
2022-12-27T11:16:36.065Z,102006.63
2022-12-27T11:21:39.420Z,102014.88
2022-12-27T11:26:53.945Z,102015.84
2022-12-27T11:31:56.837Z,102014.09
2022-12-27T11:37:17.606Z,102017.31
2022-12-27T11:42:19.151Z,102005.81
2022-12-27T11:47:28.218Z,102010.72
2022-12-27T11:52:48.723Z,102013.44
2022-12-27T11:58:10.501Z,102011.25
2022-12-27T12:03:36.921Z,102013.50
2022-12-27T12:08:44.357Z,102006.75
2022-12-27T12:14:01.113Z,102006.03
2022-12-27T12:19:17.593Z,101999.63
2022-12-27T12:24:42.767Z,101992.38
2022-12-27T12:30:11.705Z,101976.63
2022-12-27T12:35:31.328Z,101973.91
2022-12-27T12:41:03.729Z,101968.41
2022-12-27T12:46:11.362Z,101971.75
2022-12-27T12:51:34.419Z,101962.28
2022-12-27T12:56:54.646Z,101955.63
2022-12-27T13:02:17.620Z,101942.31
2022-12-27T13:08:10.886Z,101936.81
2022-12-27T13:13:34.087Z,101935.75
2022-12-27T13:18:53.958Z,101933.22
2022-12-27T13:24:29.609Z,101935.19
2022-12-27T13:29:52.864Z,101936.22
2022-12-27T13:35:43.895Z,101922.16
2022-12-27T13:40:57.449Z,101919.44
2022-12-27T13:46:14.243Z,101915.91
2022-12-27T13:51:41.653Z,101910.47
2022-12-27T13:57:00.672Z,101903.88
2022-12-27T14:02:30.175Z,101898.50
2022-12-27T14:07:47.129Z,101901.00
2022-12-27T14:12:58.335Z,101894.50
2022-12-27T14:18:36.976Z,101887.47
2022-12-27T14:24:12.653Z,101894.47
2022-12-27T14:29:17.181Z,101890.47
2022-12-27T14:34:43.198Z,101887.00
2022-12-27T14:40:29.884Z,101882.94
2022-12-27T14:45:37.212Z,101898.19
2022-12-27T14:51:00.274Z,101886.72
2022-12-27T14:56:19.502Z,101888.88
2022-12-27T15:01:27.641Z,101883.09
2022-12-27T15:06:38.056Z,101888.44
2022-12-27T15:11:57.905Z,101889.41
2022-12-27T15:17:23.001Z,101884.88
2022-12-27T15:22:39.484Z,101890.41
2022-12-27T15:27:55.670Z,101882.03
2022-12-27T15:33:15.701Z,101887.88
2022-12-27T15:38:37.973Z,101884.84
2022-12-27T15:44:04.453Z,101878.66
2022-12-27T15:49:36.705Z,101867.56
2022-12-27T15:54:58.078Z,101859.44
2022-12-27T16:00:17.888Z,101850.38
2022-12-27T16:05:19.416Z,101849.28
2022-12-27T16:10:30.160Z,101857.13
2022-12-27T16:15:55.452Z,101859.03
2022-12-27T16:21:19.349Z,101855.75
2022-12-27T16:26:31.689Z,101862.19
2022-12-27T16:31:45.145Z,101862.81
2022-12-27T16:36:49.548Z,101860.28
2022-12-27T16:41:56.931Z,101852.84
2022-12-27T16:47:04.621Z,101842.00
2022-12-27T16:52:43.726Z,101848.97
2022-12-27T16:57:48.377Z,101851.38
2022-12-27T17:02:50.100Z,101847.31
2022-12-27T17:07:54.593Z,101856.03
2022-12-27T17:13:31.006Z,101858.63
2022-12-27T17:18:37.952Z,101854.91
2022-12-27T17:23:46.476Z,101852.66
2022-12-27T17:29:29.909Z,101847.94
2022-12-27T17:34:50.005Z,101851.78
2022-12-27T17:40:07.077Z,101840.81
2022-12-27T17:45:08.585Z,101834.28
2022-12-27T17:50:16.118Z,101837.13
2022-12-27T17:55:22.030Z,101831.19
2022-12-27T18:00:26.411Z,101832.25
2022-12-27T18:05:31.656Z,101828.13
2022-12-27T18:10:35.349Z,101830.75
2022-12-27T18:15:43.922Z,101827.41
2022-12-27T18:20:45.466Z,101825.75
2022-12-27T18:25:47.028Z,101817.63
2022-12-27T18:30:57.400Z,101811.94
2022-12-27T18:36:02.383Z,101796.13
2022-12-27T18:41:11.225Z,101786.53
2022-12-27T18:46:36.404Z,101774.31
2022-12-27T18:51:39.141Z,101768.13
2022-12-27T18:56:42.514Z,101774.72
2022-12-27T19:01:46.479Z,101773.72
2022-12-27T19:06:54.233Z,101764.09
2022-12-27T19:12:01.029Z,101755.03
2022-12-27T19:17:08.742Z,101743.47
2022-12-27T19:22:48.362Z,101743.22
2022-12-27T19:28:22.471Z,101731.19
2022-12-27T19:33:32.352Z,101708.63
2022-12-27T19:38:34.465Z,101717.25
2022-12-27T19:43:45.341Z,101695.59
2022-12-27T19:49:07.768Z,101696.25
2022-12-27T19:54:18.022Z,101690.72
2022-12-27T19:59:21.811Z,101694.84
2022-12-27T20:04:27.097Z,101681.09
2022-12-27T20:09:29.051Z,101682.13
2022-12-27T20:14:30.702Z,101689.03
2022-12-27T20:19:32.553Z,101680.16
2022-12-27T20:24:34.229Z,101681.34
2022-12-27T20:29:35.927Z,101675.81
2022-12-27T20:34:37.449Z,101672.09
2022-12-27T20:39:39.033Z,101676.31
2022-12-27T20:44:40.595Z,101669.63
2022-12-27T20:49:42.144Z,101656.00
2022-12-27T20:54:43.671Z,101653.66
2022-12-27T20:59:45.196Z,101648.63
2022-12-27T21:04:46.785Z,101644.34
2022-12-27T21:09:48.331Z,101645.38
2022-12-27T21:14:49.858Z,101633.59
2022-12-27T21:19:51.529Z,101629.94
2022-12-27T21:24:53.249Z,101623.47
2022-12-27T21:29:54.868Z,101627.50
2022-12-27T21:34:56.579Z,101619.16
2022-12-27T21:39:58.102Z,101620.22
2022-12-27T21:44:59.709Z,101605.53
2022-12-27T21:50:01.352Z,101591.28
2022-12-27T21:55:03.073Z,101586.88
2022-12-27T22:00:05.292Z,101574.94
2022-12-27T22:05:07.617Z,101550.47
2022-12-27T22:10:09.869Z,101551.94
2022-12-27T22:15:11.668Z,101539.81
2022-12-27T22:20:13.311Z,101528.53
2022-12-27T22:25:14.963Z,101537.59
2022-12-27T22:30:16.557Z,101522.34
2022-12-27T22:35:18.234Z,101529.59
2022-12-27T22:40:37.882Z,101525.84
2022-12-27T22:45:41.828Z,101513.19
2022-12-27T22:50:43.468Z,101503.97
2022-12-27T22:55:45.072Z,101491.59
2022-12-27T23:00:46.793Z,101483.06
2022-12-27T23:06:00.707Z,101467.28
2022-12-27T23:11:12.068Z,101457.31
2022-12-27T23:16:14.004Z,101440.81
2022-12-27T23:21:21.456Z,101441.69
2022-12-27T23:26:25.714Z,101432.69
2022-12-27T23:31:28.047Z,101411.69
2022-12-27T23:36:33.009Z,101409.34
2022-12-27T23:41:34.598Z,101399.63
2022-12-27T23:46:36.325Z,101383.22
2022-12-27T23:51:37.953Z,101361.44
2022-12-27T23:56:39.583Z,101343.13
